sensor_id;sensor_type;location;lat;lon;timestamp;pressure;altitude;pressure_sealevel;temperature;humidity
72855;BME280;60991;51.278;22.550;2024-01-15T00:00:07;97198.28;;;1.01;77.68
72855;BME280;60991;51.278;22.550;2024-01-15T00:01:44;97192.25;;;1.00;77.27
72855;BME280;60991;51.278;22.550;2024-01-15T00:03:15;97196.44;;;1.01;77.48
72855;BME280;60991;51.278;22.550;2024-01-15T00:04:45;97194.41;;;1.03;77.35
72855;BME280;60991;51.278;22.550;2024-01-15T00:06:15;97190.31;;;1.08;77.40
72855;BME280;60991;51.278;22.550;2024-01-15T00:07:45;97193.28;;;1.11;77.18
72855;BME280;60991;51.278;22.550;2024-01-15T00:09:15;97191.19;;;1.13;77.67
72855;BME280;60991;51.278;22.550;2024-01-15T00:10:46;97195.88;;;1.11;77.30
72855;BME280;60991;51.278;22.550;2024-01-15T00:12:16;97187.94;;;1.06;77.38
72855;BME280;60991;51.278;22.550;2024-01-15T00:13:46;97182.59;;;1.01;77.57
72855;BME280;60991;51.278;22.550;2024-01-15T00:15:16;97175.78;;;1.00;76.99
72855;BME280;60991;51.278;22.550;2024-01-15T00:16:47;97169.53;;;1.01;77.05
72855;BME280;60991;51.278;22.550;2024-01-15T00:18:17;97173.97;;;1.00;77.02
72855;BME280;60991;51.278;22.550;2024-01-15T00:19:47;97170.66;;;1.05;77.35
72855;BME280;60991;51.278;22.550;2024-01-15T00:21:17;97163.28;;;1.02;77.00
72855;BME280;60991;51.278;22.550;2024-01-15T00:22:48;97164.88;;;1.03;77.54
72855;BME280;60991;51.278;22.550;2024-01-15T00:24:18;97155.69;;;1.00;77.08
72855;BME280;60991;51.278;22.550;2024-01-15T00:25:50;97159.78;;;0.96;77.78
72855;BME280;60991;51.278;22.550;2024-01-15T00:27:20;97166.81;;;0.96;77.65
72855;BME280;60991;51.278;22.550;2024-01-15T00:28:51;97152.03;;;1.01;77.53
72855;BME280;60991;51.278;22.550;2024-01-15T00:30:21;97149.88;;;0.98;77.13
72855;BME280;60991;51.278;22.550;2024-01-15T00:31:51;97151.59;;;0.93;77.66
72855;BME280;60991;51.278;22.550;2024-01-15T00:33:21;97148.75;;;0.94;77.46
72855;BME280;60991;51.278;22.550;2024-01-15T00:34:51;97141.94;;;0.93;77.23
72855;BME280;60991;51.278;22.550;2024-01-15T00:36:22;97136.97;;;0.92;77.94
72855;BME280;60991;51.278;22.550;2024-01-15T00:37:52;97148.69;;;0.89;77.05
72855;BME280;60991;51.278;22.550;2024-01-15T00:39:22;97137.09;;;0.85;78.12
72855;BME280;60991;51.278;22.550;2024-01-15T00:40:52;97130.28;;;0.84;77.86
72855;BME280;60991;51.278;22.550;2024-01-15T00:42:22;97135.16;;;0.81;78.00
72855;BME280;60991;51.278;22.550;2024-01-15T00:43:53;97138.56;;;0.81;78.35
72855;BME280;60991;51.278;22.550;2024-01-15T00:45:23;97134.38;;;0.80;78.18
72855;BME280;60991;51.278;22.550;2024-01-15T00:46:53;97149.94;;;0.75;78.36
72855;BME280;60991;51.278;22.550;2024-01-15T00:48:24;97138.69;;;0.75;78.56
72855;BME280;60991;51.278;22.550;2024-01-15T00:49:54;97142.66;;;0.77;78.13
72855;BME280;60991;51.278;22.550;2024-01-15T00:51:24;97139.75;;;0.74;78.10
72855;BME280;60991;51.278;22.550;2024-01-15T00:52:54;97127.69;;;0.73;78.68
72855;BME280;60991;51.278;22.550;2024-01-15T00:54:24;97123.59;;;0.77;78.79
72855;BME280;60991;51.278;22.550;2024-01-15T00:55:55;97120.19;;;0.76;78.46
72855;BME280;60991;51.278;22.550;2024-01-15T00:57:25;97120.97;;;0.77;78.55
72855;BME280;60991;51.278;22.550;2024-01-15T00:58:55;97119.06;;;0.72;78.87
72855;BME280;60991;51.278;22.550;2024-01-15T01:00:25;97117.72;;;0.69;79.74
72855;BME280;60991;51.278;22.550;2024-01-15T01:01:55;97115.34;;;0.68;79.76
72855;BME280;60991;51.278;22.550;2024-01-15T01:03:26;97115.09;;;0.69;79.63
72855;BME280;60991;51.278;22.550;2024-01-15T01:04:56;97112.16;;;0.66;79.94
72855;BME280;60991;51.278;22.550;2024-01-15T01:06:26;97111.69;;;0.57;80.20
72855;BME280;60991;51.278;22.550;2024-01-15T01:07:56;97113.78;;;0.55;80.27
72855;BME280;60991;51.278;22.550;2024-01-15T01:09:26;97115.25;;;0.51;80.51
72855;BME280;60991;51.278;22.550;2024-01-15T01:10:57;97104.34;;;0.54;80.70
72855;BME280;60991;51.278;22.550;2024-01-15T01:12:27;97092.09;;;0.55;80.66
72855;BME280;60991;51.278;22.550;2024-01-15T01:13:57;97107.88;;;0.48;81.04
72855;BME280;60991;51.278;22.550;2024-01-15T01:15:27;97101.50;;;0.44;81.24
72855;BME280;60991;51.278;22.550;2024-01-15T01:16:58;97114.56;;;0.44;81.74
72855;BME280;60991;51.278;22.550;2024-01-15T01:18:28;97105.38;;;0.42;81.97
72855;BME280;60991;51.278;22.550;2024-01-15T01:19:58;97106.50;;;0.46;82.04
72855;BME280;60991;51.278;22.550;2024-01-15T01:21:28;97108.53;;;0.44;82.21
72855;BME280;60991;51.278;22.550;2024-01-15T01:22:58;97106.16;;;0.42;81.85
72855;BME280;60991;51.278;22.550;2024-01-15T01:24:29;97108.78;;;0.42;82.40
72855;BME280;60991;51.278;22.550;2024-01-15T01:25:59;97098.34;;;0.42;81.81
72855;BME280;60991;51.278;22.550;2024-01-15T01:27:29;97087.66;;;0.44;82.30
72855;BME280;60991;51.278;22.550;2024-01-15T01:28:59;97094.03;;;0.48;82.12
72855;BME280;60991;51.278;22.550;2024-01-15T01:30:29;97086.31;;;0.53;82.10
72855;BME280;60991;51.278;22.550;2024-01-15T01:31:59;97082.56;;;0.49;81.73
72855;BME280;60991;51.278;22.550;2024-01-15T01:33:30;97075.75;;;0.48;81.53
72855;BME280;60991;51.278;22.550;2024-01-15T01:35:00;97059.53;;;0.46;81.55
72855;BME280;60991;51.278;22.550;2024-01-15T01:36:31;97072.56;;;0.46;81.08
72855;BME280;60991;51.278;22.550;2024-01-15T01:38:01;97064.63;;;0.41;81.50
72855;BME280;60991;51.278;22.550;2024-01-15T01:39:31;97074.28;;;0.40;81.60
72855;BME280;60991;51.278;22.550;2024-01-15T01:41:02;97059.97;;;0.43;81.67
72855;BME280;60991;51.278;22.550;2024-01-15T01:42:32;97061.00;;;0.42;81.27
72855;BME280;60991;51.278;22.550;2024-01-15T01:44:02;97064.19;;;0.44;81.57
72855;BME280;60991;51.278;22.550;2024-01-15T01:45:32;97061.91;;;0.47;80.96
72855;BME280;60991;51.278;22.550;2024-01-15T01:47:03;97061.34;;;0.45;81.14
72855;BME280;60991;51.278;22.550;2024-01-15T01:48:34;97050.69;;;0.47;80.86
72855;BME280;60991;51.278;22.550;2024-01-15T01:50:05;97063.72;;;0.47;80.79
72855;BME280;60991;51.278;22.550;2024-01-15T01:51:35;97065.78;;;0.45;81.04
72855;BME280;60991;51.278;22.550;2024-01-15T01:53:06;97057.25;;;0.49;80.57
72855;BME280;60991;51.278;22.550;2024-01-15T01:54:37;97044.53;;;0.53;80.63
72855;BME280;60991;51.278;22.550;2024-01-15T01:56:09;97045.34;;;0.53;80.21
72855;BME280;60991;51.278;22.550;2024-01-15T01:57:40;97048.50;;;0.55;80.28
72855;BME280;60991;51.278;22.550;2024-01-15T01:59:11;97045.91;;;0.55;79.92
72855;BME280;60991;51.278;22.550;2024-01-15T02:00:41;97052.94;;;0.55;79.77
72855;BME280;60991;51.278;22.550;2024-01-15T02:02:12;97036.94;;;0.51;79.64
72855;BME280;60991;51.278;22.550;2024-01-15T02:03:43;97036.38;;;0.49;79.46
72855;BME280;60991;51.278;22.550;2024-01-15T02:05:14;97023.44;;;0.54;79.38
72855;BME280;60991;51.278;22.550;2024-01-15T02:06:48;97035.91;;;0.52;79.54
72855;BME280;60991;51.278;22.550;2024-01-15T02:08:18;97026.84;;;0.55;79.48
72855;BME280;60991;51.278;22.550;2024-01-15T02:09:49;97021.34;;;0.56;79.00
72855;BME280;60991;51.278;22.550;2024-01-15T02:11:19;97032.59;;;0.57;78.70
72855;BME280;60991;51.278;22.550;2024-01-15T02:12:50;97027.63;;;0.55;78.82
72855;BME280;60991;51.278;22.550;2024-01-15T02:14:20;97025.78;;;0.56;78.40
72855;BME280;60991;51.278;22.550;2024-01-15T02:15:50;97030.25;;;0.55;78.67
72855;BME280;60991;51.278;22.550;2024-01-15T02:17:20;97033.31;;;0.52;78.66
72855;BME280;60991;51.278;22.550;2024-01-15T02:18:51;97031.72;;;0.51;78.79
72855;BME280;60991;51.278;22.550;2024-01-15T02:20:21;97033.09;;;0.54;78.12
72855;BME280;60991;51.278;22.550;2024-01-15T02:21:51;97025.47;;;0.52;78.43
72855;BME280;60991;51.278;22.550;2024-01-15T02:23:21;97024.69;;;0.52;78.72
72855;BME280;60991;51.278;22.550;2024-01-15T02:24:51;97023.44;;;0.54;78.58
72855;BME280;60991;51.278;22.550;2024-01-15T02:26:22;97030.69;;;0.52;78.34
72855;BME280;60991;51.278;22.550;2024-01-15T02:27:53;97019.09;;;0.60;77.85
72855;BME280;60991;51.278;22.550;2024-01-15T02:29:23;97013.31;;;0.58;77.68
72855;BME280;60991;51.278;22.550;2024-01-15T02:30:53;97019.53;;;0.57;77.72
72855;BME280;60991;51.278;22.550;2024-01-15T02:32:24;97002.06;;;0.57;77.51
72855;BME280;60991;51.278;22.550;2024-01-15T02:33:54;97008.31;;;0.56;77.88
72855;BME280;60991;51.278;22.550;2024-01-15T02:35:24;97007.28;;;0.57;77.63
72855;BME280;60991;51.278;22.550;2024-01-15T02:36:54;96993.22;;;0.58;77.74
72855;BME280;60991;51.278;22.550;2024-01-15T02:38:24;97012.06;;;0.60;77.17
72855;BME280;60991;51.278;22.550;2024-01-15T02:39:55;96996.31;;;0.55;77.19
72855;BME280;60991;51.278;22.550;2024-01-15T02:41:25;97002.28;;;0.56;77.14
72855;BME280;60991;51.278;22.550;2024-01-15T02:42:55;96994.22;;;0.57;77.13
72855;BME280;60991;51.278;22.550;2024-01-15T02:44:25;97002.56;;;0.54;77.42
72855;BME280;60991;51.278;22.550;2024-01-15T02:45:55;96998.34;;;0.53;77.59
72855;BME280;60991;51.278;22.550;2024-01-15T02:47:26;96999.38;;;0.52;77.23
72855;BME280;60991;51.278;22.550;2024-01-15T02:48:56;96995.97;;;0.52;77.18
72855;BME280;60991;51.278;22.550;2024-01-15T02:50:26;96986.09;;;0.54;77.34
72855;BME280;60991;51.278;22.550;2024-01-15T02:51:56;96995.81;;;0.58;77.11
72855;BME280;60991;51.278;22.550;2024-01-15T02:53:26;96986.91;;;0.54;77.21
72855;BME280;60991;51.278;22.550;2024-01-15T02:54:57;96990.84;;;0.57;76.73
72855;BME280;60991;51.278;22.550;2024-01-15T02:56:27;96986.97;;;0.59;76.77
72855;BME280;60991;51.278;22.550;2024-01-15T02:57:57;97000.34;;;0.63;76.51
72855;BME280;60991;51.278;22.550;2024-01-15T02:59:27;96980.72;;;0.60;76.20
72855;BME280;60991;51.278;22.550;2024-01-15T03:00:57;96982.53;;;0.60;76.64
72855;BME280;60991;51.278;22.550;2024-01-15T03:02:28;96985.72;;;0.62;76.92
72855;BME280;60991;51.278;22.550;2024-01-15T03:03:58;96988.66;;;0.65;76.75
72855;BME280;60991;51.278;22.550;2024-01-15T03:05:28;96970.63;;;0.64;77.08
72855;BME280;60991;51.278;22.550;2024-01-15T03:06:58;96973.47;;;0.62;76.99
72855;BME280;60991;51.278;22.550;2024-01-15T03:08:28;96974.25;;;0.63;76.70
72855;BME280;60991;51.278;22.550;2024-01-15T03:09:59;96979.47;;;0.63;76.43
72855;BME280;60991;51.278;22.550;2024-01-15T03:11:29;96971.06;;;0.61;76.62
72855;BME280;60991;51.278;22.550;2024-01-15T03:12:59;96963.94;;;0.56;77.33
72855;BME280;60991;51.278;22.550;2024-01-15T03:14:30;96971.69;;;0.51;78.02
72855;BME280;60991;51.278;22.550;2024-01-15T03:16:00;96986.44;;;0.46;79.53
72855;BME280;60991;51.278;22.550;2024-01-15T03:17:30;96979.19;;;0.48;78.85
72855;BME280;60991;51.278;22.550;2024-01-15T03:19:01;96978.16;;;0.49;78.84
72855;BME280;60991;51.278;22.550;2024-01-15T03:20:31;96971.81;;;0.45;79.06
72855;BME280;60991;51.278;22.550;2024-01-15T03:22:01;96960.81;;;0.43;79.30
72855;BME280;60991;51.278;22.550;2024-01-15T03:23:31;96960.03;;;0.42;79.36
72855;BME280;60991;51.278;22.550;2024-01-15T03:25:02;96960.47;;;0.39;79.17
72855;BME280;60991;51.278;22.550;2024-01-15T03:26:33;96957.88;;;0.39;79.30
72855;BME280;60991;51.278;22.550;2024-01-15T03:28:03;96947.53;;;0.44;78.33
72855;BME280;60991;51.278;22.550;2024-01-15T03:29:33;96962.63;;;0.42;78.54
72855;BME280;60991;51.278;22.550;2024-01-15T03:31:04;96964.69;;;0.40;78.00
72855;BME280;60991;51.278;22.550;2024-01-15T03:32:34;96954.25;;;0.40;78.68
72855;BME280;60991;51.278;22.550;2024-01-15T03:34:04;96955.03;;;0.41;77.96
72855;BME280;60991;51.278;22.550;2024-01-15T03:35:34;96951.97;;;0.44;77.98
72855;BME280;60991;51.278;22.550;2024-01-15T03:37:04;96940.72;;;0.43;77.74
72855;BME280;60991;51.278;22.550;2024-01-15T03:38:40;96949.91;;;0.46;77.07
72855;BME280;60991;51.278;22.550;2024-01-15T03:40:11;96954.69;;;0.49;77.30
72855;BME280;60991;51.278;22.550;2024-01-15T03:41:41;96956.25;;;0.50;77.21
72855;BME280;60991;51.278;22.550;2024-01-15T03:43:12;96953.19;;;0.53;76.70
72855;BME280;60991;51.278;22.550;2024-01-15T03:44:42;96952.16;;;0.54;76.67
72855;BME280;60991;51.278;22.550;2024-01-15T03:46:12;96954.28;;;0.57;76.40
72855;BME280;60991;51.278;22.550;2024-01-15T03:47:42;96944.63;;;0.57;76.40
72855;BME280;60991;51.278;22.550;2024-01-15T03:49:12;96947.03;;;0.59;76.24
72855;BME280;60991;51.278;22.550;2024-01-15T03:50:43;96946.31;;;0.63;75.90
72855;BME280;60991;51.278;22.550;2024-01-15T03:52:13;96934.88;;;0.64;75.74
72855;BME280;60991;51.278;22.550;2024-01-15T03:53:43;96923.06;;;0.62;76.01
72855;BME280;60991;51.278;22.550;2024-01-15T03:55:13;96931.91;;;0.61;75.74
72855;BME280;60991;51.278;22.550;2024-01-15T03:56:44;96928.28;;;0.62;75.63
72855;BME280;60991;51.278;22.550;2024-01-15T03:58:14;96924.78;;;0.56;75.72
72855;BME280;60991;51.278;22.550;2024-01-15T03:59:44;96924.78;;;0.56;75.51
72855;BME280;60991;51.278;22.550;2024-01-15T04:01:14;96930.34;;;0.60;75.17
72855;BME280;60991;51.278;22.550;2024-01-15T04:02:44;96925.56;;;0.57;75.27
72855;BME280;60991;51.278;22.550;2024-01-15T04:04:15;96920.34;;;0.57;75.25
72855;BME280;60991;51.278;22.550;2024-01-15T04:05:45;96913.09;;;0.59;75.29
72855;BME280;60991;51.278;22.550;2024-01-15T04:07:15;96915.47;;;0.60;75.40
72855;BME280;60991;51.278;22.550;2024-01-15T04:08:45;96913.19;;;0.64;74.90
72855;BME280;60991;51.278;22.550;2024-01-15T04:10:15;96913.19;;;0.64;75.00
72855;BME280;60991;51.278;22.550;2024-01-15T04:11:46;96904.88;;;0.67;74.63
72855;BME280;60991;51.278;22.550;2024-01-15T04:13:16;96901.03;;;0.69;74.63
72855;BME280;60991;51.278;22.550;2024-01-15T04:14:46;96891.28;;;0.65;74.66
72855;BME280;60991;51.278;22.550;2024-01-15T04:16:16;96886.16;;;0.70;74.18
72855;BME280;60991;51.278;22.550;2024-01-15T04:17:46;96892.31;;;0.64;74.64
72855;BME280;60991;51.278;22.550;2024-01-15T04:19:16;96891.28;;;0.65;74.14
72855;BME280;60991;51.278;22.550;2024-01-15T04:20:47;96882.66;;;0.64;74.64
72855;BME280;60991;51.278;22.550;2024-01-15T04:22:17;96884.00;;;0.67;73.66
72855;BME280;60991;51.278;22.550;2024-01-15T04:23:47;96881.41;;;0.67;73.80
72855;BME280;60991;51.278;22.550;2024-01-15T04:25:17;96881.63;;;0.65;74.00
72855;BME280;60991;51.278;22.550;2024-01-15T04:26:47;96881.41;;;0.67;73.84
72855;BME280;60991;51.278;22.550;2024-01-15T04:28:18;96882.09;;;0.62;74.33
72855;BME280;60991;51.278;22.550;2024-01-15T04:29:48;96883.91;;;0.62;74.03
72855;BME280;60991;51.278;22.550;2024-01-15T04:31:22;96894.69;;;0.65;73.64
72855;BME280;60991;51.278;22.550;2024-01-15T04:32:53;96876.41;;;0.65;73.21
72855;BME280;60991;51.278;22.550;2024-01-15T04:34:23;96868.56;;;0.65;73.80
72855;BME280;60991;51.278;22.550;2024-01-15T04:35:53;96870.41;;;0.65;73.67
72855;BME280;60991;51.278;22.550;2024-01-15T04:37:23;96865.50;;;0.68;73.13
72855;BME280;60991;51.278;22.550;2024-01-15T04:38:53;96863.44;;;0.71;72.87
72855;BME280;60991;51.278;22.550;2024-01-15T04:40:24;96861.63;;;0.71;72.90
72855;BME280;60991;51.278;22.550;2024-01-15T04:41:54;96856.88;;;0.68;72.68
72855;BME280;60991;51.278;22.550;2024-01-15T04:43:24;96856.09;;;0.67;72.93
72855;BME280;60991;51.278;22.550;2024-01-15T04:44:54;96864.72;;;0.68;72.71
72855;BME280;60991;51.278;22.550;2024-01-15T04:46:24;96859.88;;;0.77;72.32
72855;BME280;60991;51.278;22.550;2024-01-15T04:47:55;96853.06;;;0.76;72.74
72855;BME280;60991;51.278;22.550;2024-01-15T04:49:25;96857.50;;;0.75;72.59
72855;BME280;60991;51.278;22.550;2024-01-15T04:50:55;96861.16;;;0.74;73.05
72855;BME280;60991;51.278;22.550;2024-01-15T04:52:25;96854.88;;;0.75;72.02
72855;BME280;60991;51.278;22.550;2024-01-15T04:53:56;96847.03;;;0.75;73.11
72855;BME280;60991;51.278;22.550;2024-01-15T04:55:26;96834.56;;;0.77;72.50
72855;BME280;60991;51.278;22.550;2024-01-15T04:56:56;96864.63;;;0.80;72.40
72855;BME280;60991;51.278;22.550;2024-01-15T04:58:26;96855.22;;;0.79;72.62
72855;BME280;60991;51.278;22.550;2024-01-15T04:59:56;96851.81;;;0.78;73.07
72855;BME280;60991;51.278;22.550;2024-01-15T05:01:31;96859.56;;;0.73;73.62
72855;BME280;60991;51.278;22.550;2024-01-15T05:03:01;96848.81;;;0.69;73.33
72855;BME280;60991;51.278;22.550;2024-01-15T05:04:31;96845.88;;;0.66;74.17
72855;BME280;60991;51.278;22.550;2024-01-15T05:06:01;96847.13;;;0.63;74.47
72855;BME280;60991;51.278;22.550;2024-01-15T05:07:32;96848.38;;;0.61;75.47
72855;BME280;60991;51.278;22.550;2024-01-15T05:09:02;96849.34;;;0.55;75.89
72855;BME280;60991;51.278;22.550;2024-01-15T05:10:32;96860.81;;;0.54;77.14
72855;BME280;60991;51.278;22.550;2024-01-15T05:12:03;96860.59;;;0.55;77.52
72855;BME280;60991;51.278;22.550;2024-01-15T05:13:33;96855.72;;;0.47;78.71
72855;BME280;60991;51.278;22.550;2024-01-15T05:15:04;96851.44;;;0.41;79.65
72855;BME280;60991;51.278;22.550;2024-01-15T05:16:34;96838.81;;;0.33;80.73
72855;BME280;60991;51.278;22.550;2024-01-15T05:18:04;96842.78;;;0.24;81.89
72855;BME280;60991;51.278;22.550;2024-01-15T05:19:35;96836.63;;;0.13;82.26
72855;BME280;60991;51.278;22.550;2024-01-15T05:21:05;96839.59;;;0.05;82.56
72855;BME280;60991;51.278;22.550;2024-01-15T05:22:35;96841.84;;;0.02;83.19
72855;BME280;60991;51.278;22.550;2024-01-15T05:24:05;96835.31;;;-0.01;83.70
72855;BME280;60991;51.278;22.550;2024-01-15T05:25:36;96844.72;;;0.00;82.91
72855;BME280;60991;51.278;22.550;2024-01-15T05:27:06;96840.19;;;-0.05;83.09
72855;BME280;60991;51.278;22.550;2024-01-15T05:28:36;96831.13;;;-0.02;83.00
72855;BME280;60991;51.278;22.550;2024-01-15T05:30:06;96836.66;;;0.02;82.55
72855;BME280;60991;51.278;22.550;2024-01-15T05:31:37;96824.97;;;0.04;82.33
72855;BME280;60991;51.278;22.550;2024-01-15T05:33:07;96825.53;;;0.06;82.09
72855;BME280;60991;51.278;22.550;2024-01-15T05:34:37;96825.06;;;0.09;81.96
72855;BME280;60991;51.278;22.550;2024-01-15T05:36:08;96824.81;;;0.11;81.00
72855;BME280;60991;51.278;22.550;2024-01-15T05:37:42;96814.72;;;0.14;81.14
72855;BME280;60991;51.278;22.550;2024-01-15T05:39:13;96823.69;;;0.18;80.96
72855;BME280;60991;51.278;22.550;2024-01-15T05:40:43;96813.06;;;0.25;79.85
72855;BME280;60991;51.278;22.550;2024-01-15T05:42:13;96822.72;;;0.24;79.94
72855;BME280;60991;51.278;22.550;2024-01-15T05:43:43;96824.63;;;0.29;79.77
72855;BME280;60991;51.278;22.550;2024-01-15T05:45:14;96830.97;;;0.33;79.16
72855;BME280;60991;51.278;22.550;2024-01-15T05:46:44;96823.47;;;0.37;78.47
72855;BME280;60991;51.278;22.550;2024-01-15T05:48:14;96821.38;;;0.39;78.70
72855;BME280;60991;51.278;22.550;2024-01-15T05:49:44;96816.50;;;0.42;77.66
72855;BME280;60991;51.278;22.550;2024-01-15T05:51:14;96812.53;;;0.40;77.85
72855;BME280;60991;51.278;22.550;2024-01-15T05:52:45;96810.94;;;0.39;77.69
72855;BME280;60991;51.278;22.550;2024-01-15T05:54:15;96820.38;;;0.40;77.24
72855;BME280;60991;51.278;22.550;2024-01-15T05:55:45;96816.03;;;0.45;77.31
72855;BME280;60991;51.278;22.550;2024-01-15T05:57:15;96807.75;;;0.48;77.29
72855;BME280;60991;51.278;22.550;2024-01-15T05:58:46;96802.28;;;0.50;76.93
72855;BME280;60991;51.278;22.550;2024-01-15T06:00:16;96801.97;;;0.46;76.70
72855;BME280;60991;51.278;22.550;2024-01-15T06:01:46;96804.34;;;0.48;76.57
72855;BME280;60991;51.278;22.550;2024-01-15T06:03:16;96808.75;;;0.47;77.03
72855;BME280;60991;51.278;22.550;2024-01-15T06:04:47;96814.38;;;0.56;76.84
72855;BME280;60991;51.278;22.550;2024-01-15T06:06:17;96806.31;;;0.57;76.54
72855;BME280;60991;51.278;22.550;2024-01-15T06:07:47;96788.22;;;0.51;76.87
72855;BME280;60991;51.278;22.550;2024-01-15T06:09:17;96791.38;;;0.53;77.11
72855;BME280;60991;51.278;22.550;2024-01-15T06:10:47;96785.28;;;0.47;77.12
72855;BME280;60991;51.278;22.550;2024-01-15T06:12:18;96808.28;;;0.50;76.89
72855;BME280;60991;51.278;22.550;2024-01-15T06:13:48;96792.72;;;0.55;76.46
72855;BME280;60991;51.278;22.550;2024-01-15T06:15:18;96793.66;;;0.49;76.88
72855;BME280;60991;51.278;22.550;2024-01-15T06:16:48;96780.38;;;0.51;77.06
72855;BME280;60991;51.278;22.550;2024-01-15T06:18:18;96781.16;;;0.51;77.73
72855;BME280;60991;51.278;22.550;2024-01-15T06:19:49;96771.19;;;0.48;77.30
72855;BME280;60991;51.278;22.550;2024-01-15T06:21:19;96777.22;;;0.49;77.27
72855;BME280;60991;51.278;22.550;2024-01-15T06:22:49;96763.13;;;0.50;77.40
72855;BME280;60991;51.278;22.550;2024-01-15T06:24:20;96770.72;;;0.51;77.26
72855;BME280;60991;51.278;22.550;2024-01-15T06:25:50;96764.88;;;0.44;77.45
72855;BME280;60991;51.278;22.550;2024-01-15T06:27:20;96774.59;;;0.49;77.41
72855;BME280;60991;51.278;22.550;2024-01-15T06:28:50;96765.41;;;0.46;77.40
72855;BME280;60991;51.278;22.550;2024-01-15T06:30:21;96769.38;;;0.49;77.29
72855;BME280;60991;51.278;22.550;2024-01-15T06:31:51;96771.66;;;0.45;77.57
72855;BME280;60991;51.278;22.550;2024-01-15T06:33:21;96774.84;;;0.47;77.43
72855;BME280;60991;51.278;22.550;2024-01-15T06:34:51;96778.25;;;0.48;77.68
72855;BME280;60991;51.278;22.550;2024-01-15T06:36:21;96786.53;;;0.45;77.36
72855;BME280;60991;51.278;22.550;2024-01-15T06:37:51;96778.47;;;0.46;77.57
72855;BME280;60991;51.278;22.550;2024-01-15T06:39:22;96779.03;;;0.48;77.32
72855;BME280;60991;51.278;22.550;2024-01-15T06:40:52;96780.84;;;0.48;77.39
72855;BME280;60991;51.278;22.550;2024-01-15T06:42:22;96789.22;;;0.50;77.15
72855;BME280;60991;51.278;22.550;2024-01-15T06:43:52;96789.22;;;0.50;77.23
72855;BME280;60991;51.278;22.550;2024-01-15T06:45:22;96785.94;;;0.54;77.20
72855;BME280;60991;51.278;22.550;2024-01-15T06:46:53;96780.19;;;0.57;77.41
72855;BME280;60991;51.278;22.550;2024-01-15T06:48:23;96785.97;;;0.59;76.88
72855;BME280;60991;51.278;22.550;2024-01-15T06:49:53;96784.09;;;0.55;76.84
72855;BME280;60991;51.278;22.550;2024-01-15T06:51:23;96786.38;;;0.51;77.50
72855;BME280;60991;51.278;22.550;2024-01-15T06:52:53;96788.53;;;0.54;77.37
72855;BME280;60991;51.278;22.550;2024-01-15T06:54:24;96792.16;;;0.53;77.20
72855;BME280;60991;51.278;22.550;2024-01-15T06:55:54;96782.03;;;0.57;77.78
72855;BME280;60991;51.278;22.550;2024-01-15T06:57:24;96789.63;;;0.58;77.66
72855;BME280;60991;51.278;22.550;2024-01-15T06:58:54;96785.94;;;0.54;77.72
72855;BME280;60991;51.278;22.550;2024-01-15T07:00:25;96789.06;;;0.56;77.32
72855;BME280;60991;51.278;22.550;2024-01-15T07:01:55;96788.25;;;0.56;77.92
72855;BME280;60991;51.278;22.550;2024-01-15T07:03:25;96791.38;;;0.53;77.43
72855;BME280;60991;51.278;22.550;2024-01-15T07:04:56;96797.63;;;0.52;77.82
72855;BME280;60991;51.278;22.550;2024-01-15T07:06:26;96795.81;;;0.52;78.07
72855;BME280;60991;51.278;22.550;2024-01-15T07:07:56;96793.44;;;0.51;77.76
72855;BME280;60991;51.278;22.550;2024-01-15T07:09:26;96788.22;;;0.51;77.76
72855;BME280;60991;51.278;22.550;2024-01-15T07:10:56;96791.84;;;0.50;78.28
72855;BME280;60991;51.278;22.550;2024-01-15T07:12:27;96791.13;;;0.54;77.87
72855;BME280;60991;51.278;22.550;2024-01-15T07:13:57;96790.59;;;0.52;77.72
72855;BME280;60991;51.278;22.550;2024-01-15T07:15:27;96783.59;;;0.58;77.33
72855;BME280;60991;51.278;22.550;2024-01-15T07:16:57;96788.34;;;0.61;76.86
72855;BME280;60991;51.278;22.550;2024-01-15T07:18:27;96792.22;;;0.58;77.07
72855;BME280;60991;51.278;22.550;2024-01-15T07:19:58;96774.59;;;0.65;76.63
72855;BME280;60991;51.278;22.550;2024-01-15T07:21:28;96786.38;;;0.68;76.00
72855;BME280;60991;51.278;22.550;2024-01-15T07:22:58;96794.94;;;0.63;76.37
72855;BME280;60991;51.278;22.550;2024-01-15T07:24:28;96797.94;;;0.72;75.45
72855;BME280;60991;51.278;22.550;2024-01-15T07:25:58;96813.28;;;0.68;75.79
72855;BME280;60991;51.278;22.550;2024-01-15T07:27:29;96793.19;;;0.69;75.60
72855;BME280;60991;51.278;22.550;2024-01-15T07:28:59;96804.75;;;0.73;75.28
72855;BME280;60991;51.278;22.550;2024-01-15T07:30:29;96796.38;;;0.71;75.96
72855;BME280;60991;51.278;22.550;2024-01-15T07:31:59;96803.88;;;0.67;76.06
72855;BME280;60991;51.278;22.550;2024-01-15T07:33:29;96795.25;;;0.67;76.14
72855;BME280;60991;51.278;22.550;2024-01-15T07:35:00;96806.81;;;0.71;75.09
72855;BME280;60991;51.278;22.550;2024-01-15T07:36:30;96797.16;;;0.72;76.06
72855;BME280;60991;51.278;22.550;2024-01-15T07:38:00;96796.59;;;0.69;76.04
72855;BME280;60991;51.278;22.550;2024-01-15T07:39:30;96793.00;;;0.76;75.85
72855;BME280;60991;51.278;22.550;2024-01-15T07:41:00;96779.72;;;0.77;75.48
72855;BME280;60991;51.278;22.550;2024-01-15T07:42:30;96791.50;;;0.80;75.11
72855;BME280;60991;51.278;22.550;2024-01-15T07:44:01;96789.88;;;0.74;75.50
72855;BME280;60991;51.278;22.550;2024-01-15T07:45:32;96799.25;;;0.75;74.88
72855;BME280;60991;51.278;22.550;2024-01-15T07:47:02;96794.13;;;0.80;75.11
72855;BME280;60991;51.278;22.550;2024-01-15T07:48:32;96791.44;;;0.75;75.53
72855;BME280;60991;51.278;22.550;2024-01-15T07:50:03;96797.94;;;0.72;75.62
72855;BME280;60991;51.278;22.550;2024-01-15T07:51:33;96803.72;;;0.74;75.64
72855;BME280;60991;51.278;22.550;2024-01-15T07:53:03;96798.00;;;0.77;76.51
72855;BME280;60991;51.278;22.550;2024-01-15T07:54:33;96809.47;;;0.76;76.32
72855;BME280;60991;51.278;22.550;2024-01-15T07:56:04;96804.25;;;0.76;75.91
72855;BME280;60991;51.278;22.550;2024-01-15T07:57:34;96801.16;;;0.79;76.29